createdAt,value
2023-03-27T00:01:37.221Z,93813.00
2023-03-27T00:06:37.166Z,93821.00
2023-03-27T00:08:37.183Z,93825.00
2023-03-27T00:21:37.093Z,93828.00
2023-03-27T00:44:38.636Z,93836.00
2023-03-27T00:45:37.327Z,93836.00
2023-03-27T00:46:37.416Z,93834.00
2023-03-27T00:47:37.542Z,93836.00
2023-03-27T00:48:37.512Z,93838.00
2023-03-27T00:49:37.604Z,93836.00
2023-03-27T00:50:37.588Z,93836.00
2023-03-27T00:51:37.664Z,93838.00
2023-03-27T00:52:37.739Z,93834.00
2023-03-27T00:54:37.829Z,93840.00
2023-03-27T00:55:37.893Z,93846.00
2023-03-27T00:56:38.054Z,93844.00
2023-03-27T00:57:38.012Z,93844.00
2023-03-27T00:58:38.092Z,93844.00
2023-03-27T00:59:38.125Z,93840.00
2023-03-27T01:00:38.211Z,93840.00
2023-03-27T01:01:38.353Z,93840.00
2023-03-27T01:02:38.392Z,93842.00
2023-03-27T01:03:38.414Z,93842.00
2023-03-27T01:04:38.373Z,93842.00
2023-03-27T01:05:38.460Z,93836.00
2023-03-27T01:06:38.499Z,93838.00
2023-03-27T01:07:38.520Z,93840.00
2023-03-27T01:08:38.573Z,93842.00
2023-03-27T01:09:38.676Z,93842.00
2023-03-27T01:10:38.639Z,93842.00
2023-03-27T01:11:38.694Z,93844.00
2023-03-27T01:12:38.701Z,93842.00
2023-03-27T01:13:38.752Z,93842.00
2023-03-27T01:14:38.817Z,93840.00
2023-03-27T01:15:38.886Z,93842.00
2023-03-27T01:16:38.876Z,93844.00
2023-03-27T01:17:38.910Z,93846.00
2023-03-27T01:18:38.978Z,93852.00
2023-03-27T01:19:39.024Z,93858.00
2023-03-27T01:20:39.048Z,93860.00
2023-03-27T01:21:39.105Z,93854.00
2023-03-27T01:22:39.150Z,93848.00
2023-03-27T01:23:59.518Z,93842.00
2023-03-27T01:24:40.185Z,93838.00
2023-03-27T01:25:39.185Z,93840.00
2023-03-27T01:28:39.171Z,93838.00
2023-03-27T01:34:39.258Z,93846.00
2023-03-27T01:35:39.368Z,93848.00
2023-03-27T01:36:39.365Z,93848.00
2023-03-27T01:37:39.396Z,93850.00
2023-03-27T01:38:39.449Z,93852.00
2023-03-27T01:39:39.493Z,93852.00
2023-03-27T01:40:39.576Z,93852.00
2023-03-27T01:41:39.644Z,93852.00
2023-03-27T01:42:39.671Z,93850.00
2023-03-27T01:43:39.783Z,93852.00
2023-03-27T01:44:43.673Z,93852.00
2023-03-27T01:45:40.848Z,93854.00
2023-03-27T01:57:48.946Z,93860.00
2023-03-27T01:58:41.013Z,93862.00
2023-03-27T02:00:52.109Z,93860.00
2023-03-27T02:01:41.032Z,93862.00
2023-03-27T02:03:39.982Z,93860.00
2023-03-27T02:10:39.923Z,93860.00
2023-03-27T02:11:39.984Z,93858.00
2023-03-27T02:12:40.003Z,93856.00
2023-03-27T02:13:40.064Z,93858.00
2023-03-27T02:14:40.114Z,93860.00
2023-03-27T02:15:40.154Z,93862.00
2023-03-27T02:16:40.257Z,93862.00
2023-03-27T02:17:40.315Z,93860.00
2023-03-27T02:18:40.341Z,93860.00
2023-03-27T02:19:40.382Z,93862.00
2023-03-27T02:20:40.438Z,93860.00
2023-03-27T02:21:40.470Z,93858.00
2023-03-27T02:22:40.533Z,93854.00
2023-03-27T02:23:40.574Z,93854.00
2023-03-27T02:24:40.615Z,93850.00
2023-03-27T02:25:40.666Z,93852.00
2023-03-27T02:26:40.739Z,93850.00
2023-03-27T02:27:40.752Z,93848.00
2023-03-27T02:28:40.827Z,93850.00
2023-03-27T02:29:40.835Z,93850.00
2023-03-27T02:30:40.905Z,93850.00
2023-03-27T02:31:40.938Z,93850.00
2023-03-27T02:32:41.092Z,93850.00
2023-03-27T02:33:41.020Z,93852.00
2023-03-27T02:34:41.087Z,93852.00
2023-03-27T02:35:41.179Z,93852.00
2023-03-27T02:36:41.154Z,93850.00
2023-03-27T02:37:41.177Z,93848.00
2023-03-27T02:38:41.233Z,93844.00
2023-03-27T02:39:41.273Z,93846.00
2023-03-27T02:40:41.327Z,93846.00
2023-03-27T02:41:41.332Z,93842.00
2023-03-27T02:42:41.353Z,93844.00
2023-03-27T02:43:41.423Z,93846.00
2023-03-27T02:44:46.546Z,93840.00
2023-03-27T02:45:42.506Z,93844.00
2023-03-27T02:52:41.400Z,93852.00
2023-03-27T02:53:41.420Z,93854.00
2023-03-27T02:57:41.354Z,93852.00
2023-03-27T03:03:41.292Z,93856.00
2023-03-27T03:04:41.305Z,93860.00
2023-03-27T03:05:41.305Z,93860.00
2023-03-27T03:21:41.363Z,93860.00
2023-03-27T03:22:41.385Z,93856.00
2023-03-27T03:23:41.391Z,93858.00
2023-03-27T03:24:42.599Z,93858.00
2023-03-27T03:30:41.383Z,93858.00
2023-03-27T03:35:41.332Z,93866.00
2023-03-27T03:36:41.295Z,93868.00
2023-03-27T03:37:41.316Z,93874.00
2023-03-27T03:44:41.409Z,93885.00
2023-03-27T03:45:41.438Z,93883.00
2023-03-27T03:46:41.503Z,93877.00
2023-03-27T03:47:41.593Z,93879.00
2023-03-27T03:48:41.645Z,93877.00
2023-03-27T03:49:41.688Z,93877.00
2023-03-27T03:50:41.752Z,93885.00
2023-03-27T03:51:41.806Z,93883.00
2023-03-27T03:52:41.833Z,93881.00
2023-03-27T03:53:41.874Z,93881.00
2023-03-27T03:54:41.977Z,93889.00
2023-03-27T03:55:42.030Z,93893.00
2023-03-27T03:56:42.000Z,93895.00
2023-03-27T03:57:42.055Z,93903.00
2023-03-27T03:58:42.088Z,93901.00
2023-03-27T03:59:42.096Z,93899.00
2023-03-27T04:00:42.100Z,93899.00
2023-03-27T04:01:42.192Z,93897.00
2023-03-27T04:02:42.220Z,93897.00
2023-03-27T04:03:42.296Z,93895.00
2023-03-27T04:04:42.217Z,93901.00
2023-03-27T04:10:42.337Z,93912.00
2023-03-27T04:11:42.343Z,93914.00
2023-03-27T04:12:42.365Z,93914.00
2023-03-27T04:13:42.380Z,93914.00
2023-03-27T04:14:42.408Z,93912.00
2023-03-27T04:15:42.461Z,93905.00
2023-03-27T04:16:42.444Z,93914.00
2023-03-27T04:17:42.543Z,93905.00
2023-03-27T04:18:42.562Z,93916.00
2023-03-27T04:19:42.504Z,93916.00
2023-03-27T04:20:42.517Z,93916.00
2023-03-27T04:23:42.555Z,93924.00
2023-03-27T04:31:42.579Z,93918.00
2023-03-27T04:32:42.591Z,93920.00
2023-03-27T04:33:42.563Z,93926.00
2023-03-27T04:34:42.582Z,93926.00
2023-03-27T04:35:42.607Z,93930.00
2023-03-27T04:36:42.664Z,93932.00
2023-03-27T04:39:42.571Z,93938.00
2023-03-27T04:40:42.583Z,93942.00
2023-03-27T04:41:42.588Z,93944.00
2023-03-27T04:42:42.601Z,93946.00
2023-03-27T04:44:42.579Z,93952.00
2023-03-27T04:45:42.588Z,93956.00
2023-03-27T04:51:42.620Z,93967.00
2023-03-27T04:52:42.653Z,93965.00
2023-03-27T04:56:42.719Z,93975.00
2023-03-27T04:58:42.648Z,93977.00
2023-03-27T04:59:42.688Z,93979.00
2023-03-27T05:01:42.833Z,93981.00
2023-03-27T05:02:42.700Z,93983.00
2023-03-27T05:03:42.735Z,93987.00
2023-03-27T05:07:42.644Z,93997.00
2023-03-27T05:08:42.659Z,93995.00
2023-03-27T05:10:42.633Z,93999.00
2023-03-27T05:11:42.637Z,94001.00
2023-03-27T05:12:42.603Z,93999.00
2023-03-27T05:14:42.616Z,94001.00
2023-03-27T05:15:42.597Z,94010.00
2023-03-27T05:18:42.577Z,94014.00
2023-03-27T05:19:42.592Z,94006.00
2023-03-27T05:20:42.547Z,93997.00
2023-03-27T05:21:42.568Z,93997.00
2023-03-27T05:26:42.492Z,94012.00
2023-03-27T05:27:42.516Z,94012.00
2023-03-27T05:28:42.564Z,94012.00
2023-03-27T05:34:42.526Z,94030.00
2023-03-27T05:35:42.495Z,94032.00
2023-03-27T05:37:42.433Z,94040.00
2023-03-27T05:38:42.478Z,94040.00
2023-03-27T05:40:42.463Z,94052.00
2023-03-27T05:41:42.402Z,94050.00
2023-03-27T05:46:42.415Z,94052.00
2023-03-27T05:47:42.478Z,94061.00
2023-03-27T05:49:42.356Z,94067.00
2023-03-27T05:50:42.475Z,94067.00
2023-03-27T05:51:47.234Z,94071.00
2023-03-27T05:52:43.380Z,94077.00
2023-03-27T05:54:42.986Z,94081.00
2023-03-27T05:55:42.376Z,94083.00
2023-03-27T05:56:42.376Z,94091.00
2023-03-27T05:58:42.290Z,94083.00
2023-03-27T05:59:42.296Z,94075.00
2023-03-27T06:00:42.315Z,94083.00
2023-03-27T06:01:42.530Z,94094.00
2023-03-27T06:06:42.246Z,94094.00
2023-03-27T06:07:43.539Z,94094.00
2023-03-27T06:08:42.262Z,94102.00
2023-03-27T06:09:42.267Z,94112.00
2023-03-27T06:11:42.499Z,94124.00
2023-03-27T06:15:42.242Z,94128.00
2023-03-27T06:16:42.219Z,94132.00
2023-03-27T06:22:42.193Z,94146.00
2023-03-27T06:23:42.228Z,94146.00
2023-03-27T06:24:42.265Z,94151.00
2023-03-27T06:28:42.392Z,94184.00
2023-03-27T06:31:42.573Z,94188.00
2023-03-27T06:32:42.572Z,94186.00
2023-03-27T06:33:42.573Z,94192.00
2023-03-27T06:34:42.639Z,94200.00
2023-03-27T06:35:42.734Z,94202.00
2023-03-27T06:36:42.766Z,94202.00
2023-03-27T06:37:42.829Z,94198.00
2023-03-27T06:38:42.919Z,94200.00
2023-03-27T06:39:42.974Z,94198.00
2023-03-27T06:40:42.995Z,94202.00
2023-03-27T06:41:43.521Z,94206.00
2023-03-27T06:42:43.454Z,94206.00
2023-03-27T06:45:43.094Z,94214.00
2023-03-27T06:46:45.938Z,94220.00
2023-03-27T06:49:43.029Z,94239.00
2023-03-27T06:55:42.986Z,94249.00
2023-03-27T06:58:42.973Z,94257.00
2023-03-27T06:59:42.967Z,94257.00
2023-03-27T07:02:42.923Z,94275.00
2023-03-27T07:03:42.907Z,94273.00
2023-03-27T07:04:51.124Z,94277.00
2023-03-27T07:05:44.020Z,94273.00
2023-03-27T07:09:42.848Z,94294.00
2023-03-27T07:13:42.842Z,94294.00
2023-03-27T07:16:42.878Z,94321.00
2023-03-27T07:18:42.802Z,94312.00
2023-03-27T07:19:42.774Z,94314.00
2023-03-27T07:20:42.801Z,94314.00
2023-03-27T07:21:42.794Z,94335.00
2023-03-27T07:26:42.743Z,94351.00
2023-03-27T07:30:42.708Z,94359.00
2023-03-27T07:33:42.797Z,94370.00
2023-03-27T07:34:42.760Z,94376.00
2023-03-27T07:35:42.863Z,94378.00
2023-03-27T07:36:43.060Z,94390.00
2023-03-27T07:39:43.082Z,94394.00
2023-03-27T07:40:43.117Z,94392.00
2023-03-27T07:41:43.174Z,94398.00
2023-03-27T07:42:43.270Z,94392.00
2023-03-27T07:43:43.288Z,94408.00
2023-03-27T07:44:43.317Z,94417.00
2023-03-27T07:45:43.419Z,94427.00
2023-03-27T07:46:43.489Z,94433.00
2023-03-27T07:47:43.589Z,94439.00
2023-03-27T07:48:43.597Z,94435.00
2023-03-27T07:49:43.699Z,94433.00
2023-03-27T07:51:43.735Z,94441.00
2023-03-27T07:52:43.785Z,94441.00
2023-03-27T07:53:43.848Z,94449.00
2023-03-27T07:54:43.912Z,94453.00
2023-03-27T07:55:43.924Z,94455.00
2023-03-27T07:56:44.069Z,94464.00
2023-03-27T07:59:43.985Z,94456.00
2023-03-27T08:00:43.991Z,94462.00
2023-03-27T08:01:44.089Z,94472.00
2023-03-27T08:03:44.016Z,94468.00
2023-03-27T08:04:44.042Z,94462.00
2023-03-27T08:08:43.916Z,94497.00
2023-03-27T08:09:43.976Z,94492.00
2023-03-27T08:13:43.999Z,94499.00
2023-03-27T08:14:43.946Z,94509.00
2023-03-27T08:15:43.911Z,94505.00
2023-03-27T08:18:43.864Z,94507.00
2023-03-27T08:19:44.512Z,94505.00
2023-03-27T08:23:43.857Z,94517.00
2023-03-27T08:24:43.852Z,94525.00
2023-03-27T08:30:43.845Z,94525.00
2023-03-27T08:31:43.772Z,94535.00
2023-03-27T08:32:44.115Z,94537.00
2023-03-27T08:34:43.716Z,94544.00
2023-03-27T08:35:43.781Z,94554.00
2023-03-27T08:36:43.748Z,94552.00
2023-03-27T08:38:43.715Z,94552.00
2023-03-27T08:39:43.756Z,94550.00
2023-03-27T08:40:43.802Z,94550.00
2023-03-27T08:41:43.859Z,94552.00
2023-03-27T08:42:43.891Z,94558.00
2023-03-27T08:43:43.929Z,94560.00
2023-03-27T08:44:43.935Z,94560.00
2023-03-27T08:45:43.972Z,94562.00
2023-03-27T08:46:44.039Z,94566.00
2023-03-27T08:47:44.098Z,94572.00
2023-03-27T08:48:44.070Z,94568.00
2023-03-27T08:49:44.078Z,94570.00
2023-03-27T08:50:44.090Z,94572.00
2023-03-27T08:51:44.126Z,94572.00
2023-03-27T08:52:44.569Z,94574.00
2023-03-27T08:54:44.169Z,94578.00
2023-03-27T08:55:44.218Z,94582.00
2023-03-27T08:56:44.271Z,94584.00
2023-03-27T08:57:44.251Z,94588.00
2023-03-27T08:58:45.081Z,94588.00
2023-03-27T09:03:44.344Z,94597.00
2023-03-27T09:05:44.300Z,94597.00
2023-03-27T09:08:44.269Z,94605.00
2023-03-27T09:13:44.343Z,94615.00
2023-03-27T09:14:44.345Z,94619.00
2023-03-27T09:15:44.392Z,94615.00
2023-03-27T09:16:46.325Z,94615.00
2023-03-27T09:17:44.503Z,94617.00
2023-03-27T09:18:44.441Z,94617.00
2023-03-27T09:19:44.537Z,94619.00
2023-03-27T09:20:44.557Z,94625.00
2023-03-27T09:21:44.598Z,94625.00
2023-03-27T09:22:44.813Z,94632.00
2023-03-27T09:28:45.243Z,94642.00
2023-03-27T09:29:44.967Z,94642.00
2023-03-27T09:30:44.969Z,94644.00
2023-03-27T09:33:45.027Z,94644.00
2023-03-27T09:34:45.039Z,94646.00
2023-03-27T09:35:45.092Z,94650.00
2023-03-27T09:36:45.029Z,94652.00
2023-03-27T09:37:45.099Z,94650.00
2023-03-27T09:38:45.157Z,94648.00
2023-03-27T09:39:45.212Z,94648.00
2023-03-27T09:40:45.271Z,94650.00
2023-03-27T09:41:45.328Z,94652.00
2023-03-27T09:42:45.570Z,94648.00
2023-03-27T09:44:45.458Z,94650.00
2023-03-27T09:53:45.662Z,94656.00
2023-03-27T09:54:45.732Z,94658.00
2023-03-27T09:55:45.686Z,94656.00
2023-03-27T09:56:45.731Z,94648.00
2023-03-27T09:57:46.559Z,94640.00
2023-03-27T09:58:45.826Z,94638.00
2023-03-27T09:59:45.830Z,94644.00
2023-03-27T10:00:45.960Z,94648.00
2023-03-27T10:01:45.918Z,94648.00
2023-03-27T10:07:46.117Z,94658.00
2023-03-27T10:08:46.045Z,94664.00
2023-03-27T10:09:46.095Z,94666.00
2023-03-27T10:18:46.162Z,94674.00
2023-03-27T10:19:47.183Z,94672.00
2023-03-27T10:21:46.068Z,94683.00
2023-03-27T10:22:46.088Z,94687.00
2023-03-27T10:23:46.119Z,94691.00
2023-03-27T10:28:46.121Z,94695.00
2023-03-27T10:36:46.382Z,94695.00
2023-03-27T10:37:50.244Z,94699.00
2023-03-27T10:39:46.365Z,94697.00
2023-03-27T10:48:46.299Z,94691.00
2023-03-27T10:53:46.356Z,94695.00
2023-03-27T10:54:46.269Z,94703.00
2023-03-27T10:55:46.248Z,94701.00
2023-03-27T10:56:46.324Z,94703.00
2023-03-27T10:57:46.336Z,94707.00
2023-03-27T10:58:46.405Z,94705.00
2023-03-27T10:59:46.432Z,94703.00
2023-03-27T11:00:46.525Z,94703.00
2023-03-27T11:01:46.581Z,94707.00
2023-03-27T11:02:46.685Z,94715.00
2023-03-27T11:03:46.619Z,94717.00
2023-03-27T11:04:46.700Z,94719.00
2023-03-27T11:05:46.711Z,94719.00
2023-03-27T11:07:47.102Z,94727.00
2023-03-27T11:11:46.692Z,94728.00
2023-03-27T11:15:46.601Z,94736.00
2023-03-27T11:16:46.650Z,94732.00
2023-03-27T11:19:46.694Z,94740.00
2023-03-27T11:20:46.721Z,94742.00
2023-03-27T11:21:46.749Z,94750.00
2023-03-27T11:22:46.809Z,94750.00
2023-03-27T11:23:46.871Z,94750.00
2023-03-27T11:24:46.881Z,94748.00
2023-03-27T11:25:46.945Z,94752.00
2023-03-27T11:26:46.952Z,94752.00
2023-03-27T11:27:46.995Z,94752.00
2023-03-27T11:28:47.122Z,94756.00
2023-03-27T11:29:47.149Z,94762.00
2023-03-27T11:30:47.192Z,94766.00
2023-03-27T11:31:47.276Z,94758.00
2023-03-27T11:32:47.314Z,94756.00
2023-03-27T11:33:47.599Z,94754.00
2023-03-27T11:34:47.359Z,94756.00
2023-03-27T11:35:47.459Z,94758.00
2023-03-27T11:36:47.485Z,94762.00
2023-03-27T11:37:47.554Z,94764.00
2023-03-27T11:38:47.590Z,94769.00
2023-03-27T11:39:47.653Z,94769.00
2023-03-27T11:40:47.719Z,94771.00
2023-03-27T11:41:47.771Z,94775.00
2023-03-27T11:42:47.817Z,94781.00
2023-03-27T11:43:47.884Z,94777.00
2023-03-27T11:44:47.960Z,94779.00
2023-03-27T11:45:48.013Z,94773.00
2023-03-27T11:46:48.103Z,94771.00
2023-03-27T11:47:48.192Z,94771.00
2023-03-27T11:48:48.216Z,94771.00
2023-03-27T11:49:48.304Z,94771.00
2023-03-27T11:50:48.383Z,94777.00
2023-03-27T11:51:48.348Z,94775.00
2023-03-27T11:52:48.426Z,94779.00
2023-03-27T11:53:48.471Z,94787.00
2023-03-27T11:54:48.537Z,94799.00
2023-03-27T11:55:48.632Z,94801.00
2023-03-27T11:56:48.700Z,94795.00
2023-03-27T11:57:48.685Z,94795.00
2023-03-27T11:58:48.748Z,94795.00
2023-03-27T11:59:48.777Z,94795.00
2023-03-27T12:00:48.819Z,94791.00
2023-03-27T12:01:48.892Z,94789.00
2023-03-27T12:02:49.149Z,94785.00
2023-03-27T12:03:49.109Z,94795.00
2023-03-27T12:04:48.977Z,94803.00
2023-03-27T12:09:49.140Z,94818.00
2023-03-27T12:14:49.090Z,94807.00
2023-03-27T12:15:49.100Z,94813.00
2023-03-27T12:16:49.191Z,94811.00
2023-03-27T12:17:49.161Z,94805.00
2023-03-27T12:19:49.108Z,94820.00
2023-03-27T12:20:53.370Z,94816.00
2023-03-27T12:21:49.118Z,94814.00
2023-03-27T12:25:49.075Z,94832.00
2023-03-27T12:27:49.064Z,94826.00
2023-03-27T12:29:49.013Z,94836.00
2023-03-27T12:30:49.023Z,94838.00
2023-03-27T12:34:49.015Z,94834.00
2023-03-27T12:36:48.983Z,94832.00
2023-03-27T12:37:48.981Z,94840.00
2023-03-27T12:38:49.029Z,94842.00
2023-03-27T12:44:48.960Z,94852.00
2023-03-27T12:46:48.976Z,94855.00
2023-03-27T12:48:48.918Z,94857.00
2023-03-27T12:55:49.226Z,94857.00
2023-03-27T12:56:49.300Z,94859.00
2023-03-27T12:57:49.459Z,94863.00
2023-03-27T12:58:49.378Z,94867.00
2023-03-27T12:59:49.404Z,94863.00
2023-03-27T13:00:49.431Z,94863.00
2023-03-27T13:01:52.728Z,94871.00
2023-03-27T13:06:49.453Z,94875.00
2023-03-27T13:07:49.457Z,94879.00
2023-03-27T13:08:49.645Z,94879.00
2023-03-27T13:11:49.445Z,94871.00
2023-03-27T13:15:49.439Z,94879.00
2023-03-27T13:18:51.740Z,94893.00
2023-03-27T13:22:49.368Z,94887.00
2023-03-27T13:25:49.339Z,94900.00
2023-03-27T13:28:49.334Z,94875.00
2023-03-27T13:35:51.347Z,94904.00
2023-03-27T13:36:49.283Z,94893.00
2023-03-27T13:37:49.252Z,94895.00
2023-03-27T13:42:49.208Z,94904.00
2023-03-27T13:43:49.233Z,94893.00
2023-03-27T13:48:49.178Z,94908.00
2023-03-27T13:50:49.191Z,94914.00
2023-03-27T13:51:49.193Z,94916.00
2023-03-27T13:54:49.167Z,94908.00
2023-03-27T14:00:49.112Z,94926.00
2023-03-27T14:01:49.219Z,94928.00
2023-03-27T14:02:49.310Z,94930.00
2023-03-27T14:03:49.363Z,94930.00
2023-03-27T14:04:49.246Z,94938.00
2023-03-27T14:05:49.258Z,94942.00
2023-03-27T14:06:49.317Z,94942.00
2023-03-27T14:07:49.442Z,94940.00
2023-03-27T14:15:50.679Z,94959.00
2023-03-27T14:16:49.785Z,94965.00
2023-03-27T14:17:49.927Z,94969.00
2023-03-27T14:18:49.877Z,94965.00
2023-03-27T14:19:49.962Z,94967.00
2023-03-27T14:20:50.002Z,94973.00
2023-03-27T14:21:50.051Z,94989.00
2023-03-27T14:22:50.126Z,94994.00
2023-03-27T14:23:50.159Z,94987.00
2023-03-27T14:24:50.188Z,94989.00
2023-03-27T14:25:50.254Z,94989.00
2023-03-27T14:26:50.323Z,94989.00
2023-03-27T14:27:50.356Z,94991.00
2023-03-27T14:28:50.397Z,94994.00
2023-03-27T14:29:50.439Z,95000.00
2023-03-27T14:30:50.458Z,95000.00
2023-03-27T14:31:50.515Z,94998.00
2023-03-27T14:32:50.601Z,94998.00
2023-03-27T14:33:50.579Z,94996.00
2023-03-27T14:34:53.754Z,94996.00
2023-03-27T14:36:50.610Z,94991.00
2023-03-27T14:37:50.605Z,94996.00
2023-03-27T14:44:50.562Z,95014.00
2023-03-27T14:46:50.557Z,95012.00
2023-03-27T14:52:50.508Z,95026.00
2023-03-27T14:53:50.504Z,95024.00
2023-03-27T14:55:50.495Z,95032.00
2023-03-27T14:56:50.490Z,95032.00
2023-03-27T15:01:50.463Z,95043.00
2023-03-27T15:03:50.429Z,95045.00
2023-03-27T15:04:50.434Z,95041.00
2023-03-27T15:06:50.395Z,95047.00
2023-03-27T15:18:50.322Z,95077.00
2023-03-27T15:19:50.329Z,95078.00
2023-03-27T15:26:50.278Z,95122.00
2023-03-27T15:36:50.214Z,95112.00
2023-03-27T15:37:50.209Z,95110.00
2023-03-27T15:41:50.275Z,95112.00
2023-03-27T15:47:50.434Z,95122.00
2023-03-27T15:48:50.396Z,95124.00
2023-03-27T15:50:50.452Z,95120.00
2023-03-27T15:51:50.489Z,95120.00
2023-03-27T15:52:50.509Z,95122.00
2023-03-27T15:53:50.513Z,95129.00
2023-03-27T15:54:50.549Z,95129.00
2023-03-27T15:55:50.575Z,95135.00
2023-03-27T15:56:50.616Z,95129.00
2023-03-27T15:57:50.595Z,95135.00
2023-03-27T15:58:50.636Z,95139.00
2023-03-27T15:59:51.288Z,95147.00
2023-03-27T16:00:50.679Z,95151.00
2023-03-27T16:01:50.755Z,95153.00
2023-03-27T16:02:50.760Z,95161.00
2023-03-27T16:03:50.841Z,95163.00
2023-03-27T16:04:50.746Z,95161.00
2023-03-27T16:05:50.765Z,95165.00
2023-03-27T16:06:50.819Z,95159.00
2023-03-27T16:12:50.942Z,95163.00
2023-03-27T16:13:51.037Z,95163.00
2023-03-27T16:14:51.015Z,95161.00
2023-03-27T16:15:51.063Z,95157.00
2023-03-27T16:16:51.051Z,95159.00
2023-03-27T16:17:51.152Z,95161.00
2023-03-27T16:18:51.143Z,95165.00
2023-03-27T16:19:51.151Z,95167.00
2023-03-27T16:20:51.162Z,95174.00
2023-03-27T16:21:51.189Z,95171.00
2023-03-27T16:22:51.196Z,95178.00
2023-03-27T16:23:51.250Z,95176.00
2023-03-27T16:24:51.293Z,95178.00
2023-03-27T16:25:51.321Z,95178.00
2023-03-27T16:26:52.613Z,95182.00
2023-03-27T16:27:51.333Z,95200.00
2023-03-27T16:28:51.346Z,95208.00
2023-03-27T16:36:51.298Z,95210.00
2023-03-27T16:39:51.307Z,95219.00
2023-03-27T16:55:51.205Z,95253.00
2023-03-27T16:56:51.185Z,95253.00
2023-03-27T16:57:51.172Z,95257.00
2023-03-27T17:01:51.155Z,95263.00
2023-03-27T17:02:51.731Z,95264.00
2023-03-27T17:09:51.071Z,95270.00
2023-03-27T17:11:51.118Z,95264.00
2023-03-27T17:20:51.354Z,95286.00
2023-03-27T17:21:51.489Z,95294.00
2023-03-27T17:22:51.490Z,95296.00
2023-03-27T17:23:51.493Z,95290.00
2023-03-27T17:24:56.911Z,95288.00
2023-03-27T17:25:52.591Z,95286.00
2023-03-27T17:26:51.529Z,95288.00
2023-03-27T17:27:51.535Z,95282.00
2023-03-27T17:32:51.539Z,95288.00
2023-03-27T17:39:51.631Z,95296.00
2023-03-27T17:40:51.699Z,95298.00
2023-03-27T17:41:51.711Z,95298.00
2023-03-27T17:42:51.758Z,95296.00
2023-03-27T17:43:51.790Z,95300.00
2023-03-27T17:44:51.848Z,95304.00
2023-03-27T17:45:51.914Z,95306.00
2023-03-27T17:46:52.033Z,95304.00
2023-03-27T17:47:52.058Z,95302.00
2023-03-27T17:48:52.009Z,95300.00
2023-03-27T17:49:52.072Z,95302.00
2023-03-27T17:51:07.475Z,95304.00
2023-03-27T17:51:53.138Z,95300.00
2023-03-27T17:58:05.920Z,95308.00
2023-03-27T17:58:53.087Z,95306.00
2023-03-27T18:00:52.071Z,95304.00
2023-03-27T18:01:52.098Z,95306.00
2023-03-27T18:12:52.201Z,95319.00
2023-03-27T18:13:52.262Z,95321.00
2023-03-27T18:14:52.306Z,95319.00
2023-03-27T18:15:52.387Z,95321.00
2023-03-27T18:16:52.419Z,95319.00
2023-03-27T18:17:52.525Z,95319.00
2023-03-27T18:18:52.554Z,95319.00
2023-03-27T18:19:52.635Z,95321.00
2023-03-27T18:20:52.704Z,95321.00
2023-03-27T18:21:52.774Z,95321.00
2023-03-27T18:22:53.742Z,95317.00
2023-03-27T18:26:53.091Z,95325.00
2023-03-27T18:27:53.110Z,95327.00
2023-03-27T18:28:53.190Z,95329.00
2023-03-27T18:29:53.234Z,95331.00
2023-03-27T18:30:53.286Z,95329.00
2023-03-27T18:31:53.474Z,95331.00
2023-03-27T18:32:53.517Z,95335.00
2023-03-27T18:33:53.474Z,95335.00
2023-03-27T18:34:53.539Z,95337.00
2023-03-27T18:35:53.642Z,95337.00
2023-03-27T18:36:53.642Z,95341.00
2023-03-27T18:37:53.666Z,95341.00
2023-03-27T18:38:53.749Z,95343.00
2023-03-27T18:39:53.769Z,95343.00
2023-03-27T18:40:53.858Z,95345.00
2023-03-27T18:41:53.887Z,95347.00
2023-03-27T18:42:53.986Z,95349.00
2023-03-27T18:43:53.985Z,95347.00
2023-03-27T18:44:54.042Z,95347.00
2023-03-27T18:45:54.123Z,95349.00
2023-03-27T18:46:54.133Z,95354.00
2023-03-27T18:47:54.182Z,95352.00
2023-03-27T18:48:54.201Z,95352.00
2023-03-27T18:49:54.268Z,95354.00
2023-03-27T18:50:54.278Z,95356.00
2023-03-27T18:51:54.354Z,95358.00
2023-03-27T18:52:54.410Z,95360.00
2023-03-27T18:53:54.451Z,95360.00
2023-03-27T18:54:54.511Z,95356.00
2023-03-27T18:55:54.582Z,95358.00
2023-03-27T18:56:54.698Z,95354.00
2023-03-27T18:57:54.673Z,95354.00
2023-03-27T18:58:54.717Z,95354.00
2023-03-27T18:59:54.778Z,95354.00
2023-03-27T19:00:54.834Z,95354.00
2023-03-27T19:01:54.882Z,95358.00
2023-03-27T19:02:54.982Z,95354.00
2023-03-27T19:03:54.997Z,95352.00
2023-03-27T19:04:55.028Z,95352.00
2023-03-27T19:05:55.147Z,95356.00
2023-03-27T19:06:55.160Z,95356.00
2023-03-27T19:07:55.189Z,95358.00
2023-03-27T19:08:55.242Z,95364.00
2023-03-27T19:09:55.328Z,95366.00
2023-03-27T19:10:55.461Z,95368.00
2023-03-27T19:11:55.391Z,95368.00
2023-03-27T19:12:55.452Z,95374.00
2023-03-27T19:13:55.477Z,95370.00
2023-03-27T19:14:55.591Z,95368.00
2023-03-27T19:15:55.606Z,95368.00
2023-03-27T19:16:55.730Z,95376.00
2023-03-27T19:18:55.772Z,95364.00
2023-03-27T19:19:55.816Z,95362.00
2023-03-27T19:20:56.017Z,95374.00
2023-03-27T19:21:55.960Z,95378.00
2023-03-27T19:22:56.041Z,95382.00
2023-03-27T19:23:56.084Z,95376.00
2023-03-27T19:24:56.134Z,95370.00
2023-03-27T19:25:56.190Z,95370.00
2023-03-27T19:26:56.272Z,95368.00
2023-03-27T19:27:56.352Z,95374.00
2023-03-27T19:28:56.369Z,95380.00
2023-03-27T19:29:56.431Z,95382.00
2023-03-27T19:30:56.738Z,95390.00
2023-03-27T19:31:56.493Z,95396.00
2023-03-27T19:32:56.631Z,95390.00
2023-03-27T19:33:56.640Z,95386.00
2023-03-27T19:34:56.694Z,95388.00
2023-03-27T19:35:56.725Z,95384.00
2023-03-27T19:36:56.730Z,95384.00
2023-03-27T19:37:56.795Z,95382.00
2023-03-27T19:38:56.775Z,95382.00
2023-03-27T19:39:56.808Z,95386.00
2023-03-27T19:40:57.046Z,95386.00
2023-03-27T19:41:56.852Z,95392.00
2023-03-27T19:42:56.895Z,95394.00
2023-03-27T19:43:58.977Z,95397.00
2023-03-27T19:44:56.941Z,95397.00
2023-03-27T19:49:56.918Z,95388.00
2023-03-27T19:50:57.008Z,95392.00
2023-03-27T19:53:56.895Z,95388.00
2023-03-27T19:54:56.855Z,95386.00
2023-03-27T19:55:56.877Z,95388.00
2023-03-27T19:57:56.853Z,95394.00
2023-03-27T19:58:56.851Z,95396.00
2023-03-27T20:00:56.915Z,95392.00
2023-03-27T20:01:56.858Z,95397.00
2023-03-27T20:08:56.808Z,95388.00
2023-03-27T20:09:56.763Z,95390.00
2023-03-27T20:11:56.733Z,95390.00
2023-03-27T20:12:56.739Z,95386.00
2023-03-27T20:15:56.837Z,95388.00
2023-03-27T20:16:56.714Z,95394.00
2023-03-27T20:17:56.765Z,95397.00
2023-03-27T20:18:56.768Z,95396.00
2023-03-27T20:19:56.834Z,95396.00
2023-03-27T20:20:57.080Z,95392.00
2023-03-27T20:21:57.004Z,95390.00
2023-03-27T20:22:58.083Z,95397.00
2023-03-27T20:23:57.126Z,95403.00
2023-03-27T20:24:57.147Z,95405.00
2023-03-27T20:25:57.382Z,95403.00
2023-03-27T20:26:57.294Z,95405.00
2023-03-27T20:27:57.304Z,95417.00
2023-03-27T20:28:57.340Z,95419.00
2023-03-27T20:29:57.444Z,95419.00
2023-03-27T20:30:57.501Z,95415.00
2023-03-27T20:31:57.561Z,95421.00
2023-03-27T20:32:57.616Z,95421.00
2023-03-27T20:33:57.692Z,95423.00
2023-03-27T20:34:57.730Z,95419.00
2023-03-27T20:35:58.135Z,95415.00
2023-03-27T20:36:57.853Z,95423.00
2023-03-27T20:37:58.140Z,95435.00
2023-03-27T20:38:57.966Z,95419.00
2023-03-27T20:39:57.985Z,95423.00
2023-03-27T20:40:58.060Z,95429.00
2023-03-27T20:41:58.105Z,95431.00
2023-03-27T20:42:58.826Z,95431.00